Погода Куштяна неделю

Дакка, Бангладеш

01 - 07 марта
  • 01марта
    Сегодня
    +14°
    +28°
    Ясно и безоблачно
    ВремяПогодаТемператураВлажностьДавлениеВетер, м/сВероятность осадков
    00:00Ясно и безоблачно+17°C74 %758 мм0.0 м/с2 %
    03:00Ясно и безоблачно+14°C86 %758 мм2.3 м/с2 %
    06:00Ясно и безоблачно+15°C81 %759 мм0.0 м/с2 %
    09:00Ясно и безоблачно+20°C63 %761 мм0.6 м/с2 %
    12:00Ясно и безоблачно+26°C42 %760 мм1.2 м/с2 %
    15:00Ясно и безоблачно+28°C37 %757 мм1.3 м/с2 %
    18:00Ясно и безоблачно+22°C53 %757 мм0.2 м/с2 %
    21:00Ясно и безоблачно+18°C70 %758 мм0.1 м/с2 %
  • 02марта
    Суббота
    +15°
    +29°
    Ясно и безоблачно
    ВремяПогодаТемператураВлажностьДавлениеВетер, м/сВероятность осадков
    00:00Ясно и безоблачно+16°C72 %759 мм0.1 м/с2 %
    03:00Ясно и безоблачно+17°C78 %757 мм1.8 м/с2 %
    06:00Ясно и безоблачно+15°C83 %757 мм0.0 м/с2 %
    09:00Ясно и безоблачно+21°C62 %759 мм0.6 м/с2 %
    12:00Ясно и безоблачно+27°C37 %758 мм1.1 м/с2 %
    15:00Ясно и безоблачно+29°C34 %756 мм1.2 м/с2 %
    18:00Ясно и безоблачно+23°C55 %755 мм0.2 м/с2 %
    21:00Ясно и безоблачно+19°C62 %757 мм0.2 м/с2 %
  • 03марта
    Воскресенье
    +19°
    +31°
    Ясно и безоблачно
    ВремяПогодаТемператураВлажностьДавлениеВетер, м/сВероятность осадков
    00:00Ясно и безоблачно+17°C75 %757 мм0.0 м/с2 %
    03:00Ясно и безоблачно+17°C79 %756 мм1.9 м/с2 %
    06:00Ясно и безоблачно+16°C81 %757 мм0.0 м/с2 %
    09:00Ясно и безоблачно+22°C62 %758 мм0.8 м/с2 %
    12:00Ясно и безоблачно+29°C42 %757 мм1.3 м/с2 %
    15:00Ясно и безоблачно+31°C37 %755 мм1.2 м/с2 %
    18:00Ясно и безоблачно+26°C57 %754 мм0.2 м/с3 %
    21:00Ясно и безоблачно+21°C68 %756 мм0.3 м/с2 %
  • 04марта
    Понедельник
    +18°
    +31°
    Практически безоблачно
    ВремяПогодаТемператураВлажностьДавлениеВетер, м/сВероятность осадков
    00:00Практически безоблачно+20°C80 %756 мм0.1 м/с2 %
    03:00Практически безоблачно+20°C79 %755 мм0.7 м/с7 %
    06:00Небольшая облачность+19°C87 %756 мм0.2 м/с17 %
    09:00Небольшая облачность+23°C65 %758 мм1.2 м/с19 %
    12:00Ясно и безоблачно+29°C50 %757 мм1.3 м/с11 %
    15:00Практически безоблачно+31°C42 %755 мм1.3 м/с16 %
    18:00Практически безоблачно+24°C59 %755 мм0.3 м/с15 %
    21:00Ясно и безоблачно+22°C74 %756 мм0.3 м/с2 %
  • 05марта
    Вторник
    +15°
    +30°
    Ясно и безоблачно
    ВремяПогодаТемператураВлажностьДавлениеВетер, м/сВероятность осадков
    00:00Ясно и безоблачно+21°C79 %756 мм0.2 м/с2 %
    03:00Ясно и безоблачно+20°C68 %756 мм2.5 м/с2 %
    06:00Ясно и безоблачно+19°C65 %757 мм0.2 м/с2 %
    09:00Ясно и безоблачно+24°C54 %759 мм1.1 м/с2 %
    12:00Ясно и безоблачно+29°C38 %758 мм1.5 м/с2 %
    15:00Ясно и безоблачно+30°C37 %755 мм1.7 м/с2 %
    18:00Ясно и безоблачно+25°C51 %755 мм0.3 м/с2 %
    21:00Ясно и безоблачно+20°C66 %757 мм0.2 м/с2 %
Мы используем cookies
Соглашаюсь